createdAt,value
2023-02-11T00:01:25.389Z,28.00
2023-02-11T00:03:54.830Z,25.37
2023-02-11T00:06:27.179Z,27.17
2023-02-11T00:08:57.623Z,28.00
2023-02-11T00:11:30.390Z,26.40
2023-02-11T00:14:00.229Z,25.97
2023-02-11T00:16:31.226Z,27.63
2023-02-11T00:19:00.574Z,26.37
2023-02-11T00:21:29.190Z,24.67
2023-02-11T00:24:02.363Z,24.40
2023-02-11T00:26:34.608Z,26.47
2023-02-11T00:29:04.217Z,29.00
2023-02-11T00:31:33.459Z,30.10
2023-02-11T00:34:02.691Z,28.57
2023-02-11T00:36:31.497Z,28.37
2023-02-11T00:39:00.259Z,30.87
2023-02-11T00:41:28.720Z,32.03
2023-02-11T00:43:58.670Z,31.67
2023-02-11T00:46:27.175Z,29.57
2023-02-11T00:48:58.031Z,30.23
2023-02-11T00:51:27.469Z,29.27
2023-02-11T00:53:56.761Z,29.37
2023-02-11T00:56:25.217Z,29.50
2023-02-11T00:58:54.044Z,26.37
2023-02-11T01:01:24.039Z,26.60
2023-02-11T01:03:52.478Z,27.53
2023-02-11T01:06:21.916Z,25.93
2023-02-11T01:08:51.962Z,25.80
2023-02-11T01:11:22.565Z,25.97
2023-02-11T01:13:51.610Z,26.73
2023-02-11T01:16:22.194Z,26.00
2023-02-11T01:18:52.335Z,24.63
2023-02-11T01:21:21.288Z,26.30
2023-02-11T01:23:49.687Z,27.60
2023-02-11T01:26:18.282Z,26.93
2023-02-11T01:28:47.078Z,27.23
2023-02-11T01:31:15.923Z,27.30
2023-02-11T01:33:44.354Z,27.63
2023-02-11T01:36:15.492Z,25.67
2023-02-11T01:38:44.689Z,24.13
2023-02-11T01:41:17.627Z,23.43
2023-02-11T01:43:49.309Z,24.07
2023-02-11T01:46:36.650Z,24.87
2023-02-11T01:49:08.663Z,23.00
2023-02-11T01:51:41.826Z,23.03
2023-02-11T01:54:31.025Z,25.07
2023-02-11T01:57:18.753Z,24.37
2023-02-11T01:59:55.481Z,24.20
2023-02-11T02:02:27.586Z,25.00
2023-02-11T02:05:01.979Z,25.13
2023-02-11T02:07:35.716Z,25.37
2023-02-11T02:10:08.672Z,24.17
2023-02-11T02:12:37.063Z,25.83
2023-02-11T02:15:25.637Z,25.07
2023-02-11T02:18:00.322Z,25.10
2023-02-11T02:21:10.526Z,25.47
2023-02-11T02:23:57.063Z,27.77
2023-02-11T02:26:51.026Z,29.47
2023-02-11T02:29:38.938Z,34.23
2023-02-11T02:32:32.231Z,36.93
2023-02-11T02:35:11.080Z,34.50
2023-02-11T02:37:45.779Z,36.03
2023-02-11T02:40:18.283Z,34.73
2023-02-11T02:42:48.969Z,34.53
2023-02-11T02:45:18.806Z,36.00
2023-02-11T02:47:48.575Z,37.13
2023-02-11T02:50:21.805Z,32.00
2023-02-11T02:53:02.016Z,29.63
2023-02-11T02:55:56.085Z,27.20
2023-02-11T02:58:54.083Z,26.87
2023-02-11T03:01:31.536Z,26.53
2023-02-11T03:04:11.066Z,26.93
2023-02-11T03:06:46.974Z,25.50
2023-02-11T03:09:22.470Z,25.53
2023-02-11T03:11:51.237Z,24.17
2023-02-11T03:14:21.140Z,24.10
2023-02-11T03:16:52.987Z,24.90
2023-02-11T03:19:27.637Z,24.13
2023-02-11T03:21:57.405Z,23.93
2023-02-11T03:24:30.601Z,24.00
2023-02-11T03:27:02.644Z,23.80
2023-02-11T03:29:37.716Z,25.27
2023-02-11T03:32:16.342Z,24.73
2023-02-11T03:34:51.600Z,25.27
2023-02-11T03:37:26.374Z,23.40
2023-02-11T03:39:58.244Z,24.27
2023-02-11T03:42:36.990Z,20.33
2023-02-11T03:45:09.927Z,25.30
2023-02-11T03:47:42.727Z,26.77
2023-02-11T03:50:15.864Z,28.47
2023-02-11T03:52:46.344Z,27.30
2023-02-11T03:55:18.210Z,27.73
2023-02-11T03:57:47.502Z,27.33
2023-02-11T04:00:16.786Z,27.33
2023-02-11T04:02:45.826Z,27.07
2023-02-11T04:05:17.783Z,26.30
2023-02-11T04:07:46.311Z,25.30
2023-02-11T04:10:14.834Z,25.37
2023-02-11T04:12:43.756Z,25.33
2023-02-11T04:15:12.247Z,23.50
2023-02-11T04:17:40.655Z,23.03
2023-02-11T04:20:10.346Z,24.20
2023-02-11T04:22:40.694Z,23.43
2023-02-11T04:25:10.650Z,25.07
2023-02-11T04:27:39.225Z,25.27
2023-02-11T04:30:10.040Z,23.70
2023-02-11T04:32:38.731Z,24.83
2023-02-11T04:35:08.202Z,23.77
2023-02-11T04:37:37.125Z,24.60
2023-02-11T04:40:08.165Z,23.93
2023-02-11T04:42:36.573Z,23.70
2023-02-11T04:45:07.341Z,24.97
2023-02-11T04:47:36.362Z,23.53
2023-02-11T04:50:05.270Z,24.30
2023-02-11T04:52:34.011Z,23.47
2023-02-11T04:55:02.298Z,23.87
2023-02-11T04:57:32.137Z,25.13
2023-02-11T05:00:00.597Z,24.23
2023-02-11T05:02:29.585Z,26.00
2023-02-11T05:04:58.057Z,24.53
2023-02-11T05:07:26.881Z,25.00
2023-02-11T05:09:55.134Z,24.43
2023-02-11T05:12:23.775Z,23.80
2023-02-11T05:14:53.606Z,24.40
2023-02-11T05:17:21.941Z,24.60
2023-02-11T05:19:50.284Z,24.53
2023-02-11T05:22:18.774Z,23.53
2023-02-11T05:24:47.162Z,25.37
2023-02-11T05:27:15.777Z,24.23
2023-02-11T05:29:43.982Z,23.10
2023-02-11T05:32:13.593Z,24.30
2023-02-11T05:34:41.901Z,24.37
2023-02-11T05:37:10.372Z,23.60
2023-02-11T05:39:39.092Z,23.03
2023-02-11T05:42:08.071Z,23.67
2023-02-11T05:44:36.959Z,24.10
2023-02-11T05:47:08.970Z,24.53
2023-02-11T05:49:38.728Z,22.97
2023-02-11T05:52:07.415Z,23.33
2023-02-11T05:54:35.894Z,23.67
2023-02-11T05:57:04.318Z,22.90
2023-02-11T05:59:33.047Z,24.53
2023-02-11T06:02:02.426Z,22.93
2023-02-11T06:04:31.846Z,23.20
2023-02-11T06:07:01.692Z,22.73
2023-02-11T06:09:30.358Z,21.33
2023-02-11T06:11:58.717Z,22.50
2023-02-11T06:14:27.083Z,21.53
2023-02-11T06:16:55.482Z,22.40
2023-02-11T06:19:24.169Z,22.47
2023-02-11T06:21:52.669Z,22.37
2023-02-11T06:24:44.330Z,28.63
2023-02-11T06:27:11.260Z,25.73
2023-02-11T06:29:40.040Z,23.13
2023-02-11T06:32:15.976Z,25.47
2023-02-11T06:34:52.030Z,24.17
2023-02-11T06:37:20.761Z,24.07
2023-02-11T06:39:50.625Z,23.40
2023-02-11T06:42:19.033Z,24.17
2023-02-11T06:44:47.556Z,24.00
2023-02-11T06:47:16.166Z,24.33
2023-02-11T06:49:44.807Z,25.77
2023-02-11T06:52:13.277Z,24.77
2023-02-11T06:54:41.744Z,24.77
2023-02-11T06:57:11.405Z,23.10
2023-02-11T06:59:39.840Z,25.20
2023-02-11T07:02:10.052Z,24.20
2023-02-11T07:04:38.496Z,26.03
2023-02-11T07:07:07.080Z,24.50
2023-02-11T07:09:35.662Z,25.97
2023-02-11T07:12:04.027Z,24.87
2023-02-11T07:14:33.907Z,24.20
2023-02-11T07:17:04.048Z,26.63
2023-02-11T07:19:32.722Z,28.73
2023-02-11T07:22:07.348Z,31.43
2023-02-11T07:24:36.342Z,30.67
2023-02-11T07:27:08.013Z,30.17
2023-02-11T07:29:38.572Z,29.47
2023-02-11T07:32:08.450Z,28.60
2023-02-11T07:34:37.671Z,26.87
2023-02-11T07:37:07.679Z,26.83
2023-02-11T07:39:36.768Z,28.70
2023-02-11T07:42:07.668Z,26.57
2023-02-11T07:44:38.469Z,26.07
2023-02-11T07:47:07.615Z,24.57
2023-02-11T07:49:36.709Z,24.97
2023-02-11T07:52:06.106Z,25.70
2023-02-11T07:54:50.544Z,24.40
2023-02-11T07:57:19.686Z,25.57
2023-02-11T07:59:50.088Z,25.13
2023-02-11T08:02:18.661Z,24.80
2023-02-11T08:04:48.753Z,23.43
2023-02-11T08:07:21.927Z,25.27
2023-02-11T08:09:51.509Z,24.77
2023-02-11T08:12:20.694Z,25.23
2023-02-11T08:14:51.503Z,25.27
2023-02-11T08:17:20.174Z,25.53
2023-02-11T08:19:49.382Z,25.87
2023-02-11T08:22:18.483Z,24.10
2023-02-11T08:24:47.526Z,26.60
2023-02-11T08:27:16.891Z,26.90
2023-02-11T08:29:46.088Z,28.30
2023-02-11T08:32:16.378Z,27.87
2023-02-11T08:34:45.262Z,26.77
2023-02-11T08:37:13.695Z,28.03
2023-02-11T08:39:42.445Z,27.80
2023-02-11T08:42:11.346Z,28.47
2023-02-11T08:44:40.459Z,29.63
2023-02-11T08:47:09.378Z,31.30
2023-02-11T08:49:41.448Z,30.33
2023-02-11T08:52:10.626Z,30.90
2023-02-11T08:54:39.387Z,30.87
2023-02-11T08:57:07.938Z,28.97
2023-02-11T08:59:37.420Z,31.90
2023-02-11T09:02:09.588Z,30.10
2023-02-11T09:04:40.318Z,30.70
2023-02-11T09:07:09.254Z,27.80
2023-02-11T09:09:38.551Z,27.90
2023-02-11T09:12:08.035Z,26.63
2023-02-11T09:14:37.527Z,27.03
2023-02-11T09:17:06.907Z,27.27
2023-02-11T09:19:35.952Z,28.10
2023-02-11T09:22:05.734Z,26.67
2023-02-11T09:24:38.641Z,25.50
2023-02-11T09:27:07.662Z,25.97
2023-02-11T09:29:37.415Z,27.17
2023-02-11T09:32:09.690Z,26.20
2023-02-11T09:34:39.006Z,26.70
2023-02-11T09:37:09.359Z,26.47
2023-02-11T09:39:42.239Z,26.37
2023-02-11T09:42:44.849Z,24.40
2023-02-11T09:45:20.279Z,24.93
2023-02-11T09:47:51.907Z,26.23
2023-02-11T09:50:26.685Z,27.70
2023-02-11T09:53:01.156Z,26.73
2023-02-11T09:55:34.240Z,26.67
2023-02-11T09:58:04.283Z,28.87
2023-02-11T10:00:38.961Z,28.47
2023-02-11T10:03:35.131Z,26.70
2023-02-11T10:06:15.290Z,26.70
2023-02-11T10:08:53.809Z,28.20
2023-02-11T10:11:32.431Z,25.03
2023-02-11T10:14:13.292Z,25.60
2023-02-11T10:16:56.894Z,25.90
2023-02-11T10:19:39.721Z,25.73
2023-02-11T10:22:15.302Z,26.23
2023-02-11T10:24:52.233Z,25.20
2023-02-11T10:27:25.649Z,25.10
2023-02-11T10:29:58.213Z,26.73
2023-02-11T10:32:33.991Z,26.50
2023-02-11T10:35:10.765Z,26.10
2023-02-11T10:37:42.928Z,25.33
2023-02-11T10:40:16.781Z,27.40
2023-02-11T10:42:49.459Z,26.90
2023-02-11T10:45:25.883Z,26.50
2023-02-11T10:47:55.512Z,26.07
2023-02-11T10:50:27.548Z,26.33
2023-02-11T10:53:13.536Z,26.57
2023-02-11T10:55:51.201Z,25.93
2023-02-11T10:58:27.746Z,28.47
2023-02-11T11:00:58.070Z,30.57
2023-02-11T11:03:28.431Z,31.70
2023-02-11T11:05:58.861Z,31.50
2023-02-11T11:08:40.603Z,29.57
2023-02-11T11:11:13.221Z,26.23
2023-02-11T11:13:43.560Z,24.47
2023-02-11T11:16:22.401Z,24.53
2023-02-11T11:18:53.631Z,22.37
2023-02-11T11:21:25.541Z,22.77
2023-02-11T11:23:57.100Z,22.73
2023-02-11T11:26:29.351Z,20.27
2023-02-11T11:29:02.241Z,19.67
2023-02-11T11:31:35.495Z,19.13
2023-02-11T11:34:17.837Z,19.20
2023-02-11T11:36:46.720Z,17.80
2023-02-11T11:39:22.532Z,17.57
2023-02-11T11:41:58.582Z,17.53
2023-02-11T11:44:30.291Z,17.23
2023-02-11T11:47:22.077Z,18.63
2023-02-11T11:49:56.838Z,18.50
2023-02-11T11:52:38.716Z,18.70
2023-02-11T11:55:16.904Z,18.13
2023-02-11T11:57:47.765Z,17.13
2023-02-11T12:00:20.556Z,16.67
2023-02-11T12:03:10.805Z,17.87
2023-02-11T12:05:46.000Z,16.93
2023-02-11T12:08:25.024Z,17.67
2023-02-11T12:11:03.719Z,15.90
2023-02-11T12:13:44.200Z,15.70
2023-02-11T12:16:21.380Z,16.57
2023-02-11T12:19:24.806Z,15.10
2023-02-11T12:22:02.282Z,14.73
2023-02-11T12:24:57.429Z,13.13
2023-02-11T12:27:40.364Z,13.60
2023-02-11T12:30:22.144Z,11.97
2023-02-11T12:32:57.945Z,13.47
2023-02-11T12:35:36.457Z,12.17
2023-02-11T12:38:22.841Z,12.33
2023-02-11T12:41:07.336Z,12.27
2023-02-11T12:43:37.876Z,10.70
2023-02-11T12:46:32.996Z,12.10
2023-02-11T12:49:19.606Z,12.33
2023-02-11T12:52:13.087Z,11.97
2023-02-11T12:54:45.480Z,13.53
2023-02-11T12:57:19.234Z,12.90
2023-02-11T12:59:57.334Z,12.30
2023-02-11T13:02:35.874Z,12.30
2023-02-11T13:05:14.401Z,12.37
2023-02-11T13:07:47.045Z,12.70
2023-02-11T13:10:27.839Z,13.90
2023-02-11T13:13:15.604Z,13.90
2023-02-11T13:15:51.486Z,15.00
2023-02-11T13:18:35.813Z,16.20
2023-02-11T13:21:26.566Z,14.00
2023-02-11T13:24:02.885Z,14.33
2023-02-11T13:26:41.951Z,15.67
2023-02-11T13:29:24.950Z,15.20
2023-02-11T13:31:57.581Z,15.43
2023-02-11T13:35:00.424Z,14.10
2023-02-11T13:37:33.935Z,16.17
2023-02-11T13:40:05.989Z,15.17
2023-02-11T13:42:46.365Z,21.03
2023-02-11T13:45:19.462Z,17.17
2023-02-11T13:47:52.360Z,19.47
2023-02-11T13:50:25.778Z,17.57
2023-02-11T13:52:59.690Z,22.67
2023-02-11T13:55:30.085Z,19.33
2023-02-11T13:58:19.594Z,20.73
2023-02-11T14:00:50.996Z,19.93
2023-02-11T14:03:53.271Z,18.23
2023-02-11T14:07:00.328Z,17.27
2023-02-11T14:09:40.658Z,16.93
2023-02-11T14:12:32.161Z,18.00
2023-02-11T14:15:06.042Z,17.27
2023-02-11T14:17:36.397Z,16.50
2023-02-11T14:20:26.253Z,15.07
2023-02-11T14:22:57.655Z,15.80
2023-02-11T14:25:27.393Z,16.50
2023-02-11T14:28:05.290Z,15.00
2023-02-11T14:30:46.003Z,16.50
2023-02-11T14:33:44.361Z,18.30
2023-02-11T14:36:46.620Z,17.73
2023-02-11T14:39:27.579Z,17.23
2023-02-11T14:41:56.331Z,17.40
2023-02-11T14:44:28.096Z,15.30
2023-02-11T14:46:58.173Z,15.53
2023-02-11T14:49:29.380Z,16.63
2023-02-11T14:52:01.583Z,16.77
2023-02-11T14:54:31.968Z,15.63
2023-02-11T14:57:08.928Z,15.03
2023-02-11T14:59:38.789Z,13.53
2023-02-11T15:02:21.969Z,12.57
2023-02-11T15:04:50.317Z,12.83
2023-02-11T15:07:19.608Z,12.73
2023-02-11T15:09:52.217Z,12.63
2023-02-11T15:12:25.178Z,13.27
2023-02-11T15:14:56.523Z,14.27
2023-02-11T15:17:30.634Z,14.43
2023-02-11T15:20:02.606Z,13.60
2023-02-11T15:22:36.803Z,12.93
2023-02-11T15:25:12.404Z,13.30
2023-02-11T15:27:41.648Z,12.97
2023-02-11T15:30:27.173Z,12.33
2023-02-11T15:33:00.126Z,13.13
2023-02-11T15:35:31.008Z,11.93
2023-02-11T15:38:00.581Z,11.23
2023-02-11T15:40:33.384Z,15.27
2023-02-11T15:43:03.847Z,14.40
2023-02-11T15:45:34.176Z,14.80
2023-02-11T15:48:12.182Z,14.40
2023-02-11T15:50:42.935Z,15.13
2023-02-11T15:53:27.701Z,14.90
2023-02-11T15:56:04.624Z,13.63
2023-02-11T15:58:38.469Z,13.23
2023-02-11T16:01:07.800Z,14.20
2023-02-11T16:03:36.425Z,14.00
2023-02-11T16:06:20.332Z,13.07
2023-02-11T16:09:00.160Z,13.23
2023-02-11T16:11:32.468Z,13.87
2023-02-11T16:14:04.130Z,14.07
2023-02-11T16:16:35.747Z,13.70
2023-02-11T16:19:06.635Z,13.47
2023-02-11T16:21:42.447Z,14.00
2023-02-11T16:24:21.556Z,14.03
2023-02-11T16:26:54.256Z,13.23
2023-02-11T16:29:27.454Z,15.47
2023-02-11T16:32:07.541Z,15.80
2023-02-11T16:34:37.701Z,13.33
2023-02-11T16:37:06.602Z,14.27
2023-02-11T16:39:35.481Z,13.53
2023-02-11T16:42:07.592Z,14.17
2023-02-11T16:44:36.740Z,14.23
2023-02-11T16:47:08.045Z,13.53
2023-02-11T16:49:39.296Z,15.17
2023-02-11T16:52:12.962Z,14.83
2023-02-11T16:54:41.248Z,11.67
2023-02-11T16:57:15.864Z,15.40
2023-02-11T16:59:44.310Z,15.83
2023-02-11T17:02:16.398Z,15.47
2023-02-11T17:04:45.536Z,16.17
2023-02-11T17:07:14.213Z,18.37
2023-02-11T17:09:42.901Z,16.27
2023-02-11T17:12:13.331Z,19.27
2023-02-11T17:14:41.917Z,17.83
2023-02-11T17:17:10.815Z,17.80
2023-02-11T17:19:42.177Z,15.53
2023-02-11T17:22:12.057Z,19.30
2023-02-11T17:24:40.450Z,18.40
2023-02-11T17:27:08.873Z,17.10
2023-02-11T17:29:38.541Z,15.17
2023-02-11T17:32:07.993Z,15.07
2023-02-11T17:34:36.419Z,13.13
2023-02-11T17:37:09.423Z,13.77
2023-02-11T17:39:39.765Z,14.80
2023-02-11T17:42:09.247Z,13.57
2023-02-11T17:44:39.744Z,15.87
2023-02-11T17:47:08.636Z,14.90
2023-02-11T17:49:40.411Z,16.67
2023-02-11T17:52:09.407Z,14.73
2023-02-11T17:54:39.825Z,13.33
2023-02-11T17:57:09.014Z,13.60
2023-02-11T17:59:39.382Z,12.93
2023-02-11T18:02:12.054Z,14.90
2023-02-11T18:04:41.756Z,16.13
2023-02-11T18:07:10.579Z,15.20
2023-02-11T18:09:40.703Z,14.23
2023-02-11T18:12:12.284Z,15.23
2023-02-11T18:14:42.248Z,14.43
2023-02-11T18:17:13.828Z,13.00
2023-02-11T18:19:43.042Z,14.47
2023-02-11T18:22:11.653Z,14.23
2023-02-11T18:24:41.994Z,13.67
2023-02-11T18:27:11.194Z,14.10
2023-02-11T18:29:41.127Z,13.97
2023-02-11T18:32:09.732Z,13.97
2023-02-11T18:34:38.725Z,14.77
2023-02-11T18:37:11.601Z,14.97
2023-02-11T18:39:40.407Z,13.63
2023-02-11T18:42:09.546Z,13.00
2023-02-11T18:44:39.077Z,14.17
2023-02-11T18:47:10.150Z,13.67
2023-02-11T18:49:39.182Z,12.90
2023-02-11T18:52:07.389Z,13.67
2023-02-11T18:54:36.056Z,15.33
2023-02-11T18:57:04.498Z,14.80
2023-02-11T18:59:33.018Z,13.37
2023-02-11T19:02:05.094Z,14.27
2023-02-11T19:04:37.327Z,14.47
2023-02-11T19:07:05.712Z,13.57
2023-02-11T19:09:33.971Z,12.83
2023-02-11T19:12:02.470Z,13.33
2023-02-11T19:14:33.571Z,11.40
2023-02-11T19:17:03.885Z,12.93
2023-02-11T19:19:35.496Z,14.20
2023-02-11T19:22:08.496Z,13.43
2023-02-11T19:24:38.695Z,13.23
2023-02-11T19:27:07.139Z,14.10
2023-02-11T19:29:41.092Z,14.07
2023-02-11T19:32:09.383Z,13.53
2023-02-11T19:34:42.342Z,13.83
2023-02-11T19:37:12.750Z,13.87
2023-02-11T19:39:41.632Z,14.37
2023-02-11T19:42:09.893Z,13.23
2023-02-11T19:44:38.273Z,13.33
2023-02-11T19:47:07.671Z,13.40
2023-02-11T19:49:35.907Z,13.13
2023-02-11T19:52:06.084Z,11.93
2023-02-11T19:54:34.686Z,13.10
2023-02-11T19:57:02.932Z,11.47
2023-02-11T19:59:31.497Z,12.33
2023-02-11T20:02:01.439Z,13.13
2023-02-11T20:04:32.086Z,14.40
2023-02-11T20:07:00.401Z,12.60
2023-02-11T20:09:31.299Z,12.60
2023-02-11T20:12:00.191Z,11.77
2023-02-11T20:14:28.521Z,12.90
2023-02-11T20:16:57.098Z,12.63
2023-02-11T20:19:25.795Z,11.57
2023-02-11T20:21:56.002Z,11.60
2023-02-11T20:24:26.213Z,11.90
2023-02-11T20:26:58.295Z,11.23
2023-02-11T20:29:27.588Z,12.40
2023-02-11T20:31:56.207Z,11.63
2023-02-11T20:34:25.608Z,11.67
2023-02-11T20:36:54.831Z,12.77
2023-02-11T20:39:24.262Z,12.37
2023-02-11T20:41:53.834Z,12.07
2023-02-11T20:44:24.511Z,13.70
2023-02-11T20:46:54.759Z,12.50
2023-02-11T20:49:25.270Z,13.10
2023-02-11T20:51:54.403Z,12.30
2023-02-11T20:54:23.859Z,12.43
2023-02-11T20:56:53.930Z,13.20
2023-02-11T20:59:24.864Z,14.00
2023-02-11T21:01:55.564Z,13.10
2023-02-11T21:04:26.974Z,13.40
2023-02-11T21:06:58.538Z,13.00
2023-02-11T21:09:29.438Z,13.00
2023-02-11T21:11:58.043Z,13.97
2023-02-11T21:14:30.038Z,11.70
2023-02-11T21:16:59.143Z,13.00
2023-02-11T21:19:30.808Z,13.77
2023-02-11T21:22:02.123Z,11.97
2023-02-11T21:24:30.858Z,12.63
2023-02-11T21:26:59.556Z,11.53
2023-02-11T21:29:29.848Z,12.37
2023-02-11T21:31:59.591Z,12.33
2023-02-11T21:34:28.400Z,13.40
2023-02-11T21:36:57.217Z,12.47
2023-02-11T21:39:25.414Z,13.20
2023-02-11T21:41:55.772Z,13.40
2023-02-11T21:44:24.082Z,12.83
2023-02-11T21:46:53.847Z,12.80
2023-02-11T21:49:22.894Z,13.67
2023-02-11T21:51:51.416Z,12.87
2023-02-11T21:54:20.127Z,12.13
2023-02-11T21:56:51.784Z,13.23
2023-02-11T21:59:20.553Z,12.50
2023-02-11T22:01:50.405Z,12.50
2023-02-11T22:04:20.129Z,12.07
2023-02-11T22:06:48.790Z,13.43
2023-02-11T22:09:18.018Z,12.63
2023-02-11T22:11:46.662Z,11.33
2023-02-11T22:14:15.248Z,11.97
2023-02-11T22:16:45.982Z,12.03
2023-02-11T22:19:14.617Z,12.17
2023-02-11T22:21:44.377Z,12.07
2023-02-11T22:24:12.557Z,11.97
2023-02-11T22:26:41.377Z,11.33
2023-02-11T22:29:13.034Z,11.80
2023-02-11T22:31:41.559Z,11.43
2023-02-11T22:34:10.432Z,12.00
2023-02-11T22:36:41.040Z,12.20
2023-02-11T22:39:14.053Z,12.10
2023-02-11T22:41:43.522Z,11.90
2023-02-11T22:44:11.983Z,11.70
2023-02-11T22:46:40.941Z,11.97
2023-02-11T22:49:09.212Z,12.27
2023-02-11T22:51:38.590Z,11.50
2023-02-11T22:54:08.988Z,12.43
2023-02-11T22:56:39.702Z,12.70
2023-02-11T22:59:12.101Z,13.17
2023-02-11T23:01:40.866Z,12.23
2023-02-11T23:04:12.377Z,11.70
2023-02-11T23:06:41.301Z,12.83
2023-02-11T23:09:12.227Z,12.70
2023-02-11T23:11:42.349Z,12.63
2023-02-11T23:14:12.196Z,12.20
2023-02-11T23:16:40.801Z,12.07
2023-02-11T23:19:10.063Z,12.40
2023-02-11T23:21:40.199Z,11.87
2023-02-11T23:24:12.625Z,12.17
2023-02-11T23:26:44.584Z,11.83
2023-02-11T23:29:13.835Z,11.33
2023-02-11T23:31:46.750Z,12.13
2023-02-11T23:34:17.154Z,11.43
2023-02-11T23:36:46.834Z,11.83
2023-02-11T23:39:55.704Z,12.03
2023-02-11T23:42:26.049Z,11.23
2023-02-11T23:45:09.513Z,11.30
2023-02-11T23:47:40.090Z,11.77
2023-02-11T23:50:10.069Z,11.70
2023-02-11T23:52:39.492Z,10.83
2023-02-11T23:55:08.271Z,12.73
2023-02-11T23:57:38.690Z,12.03
